METAR AND TAF INFORMATION
METAR FOR EFIV
ADDS - METARS form results

(0928 UTC 09 July 2020)
Data provider http://aviationweather.gov/metar/data/
 
METAR text: EFIV 090920Z AUTO 02006KT 340V040 9999 FEW017 BKN028 15/11 Q1005
Conditions at: EFIV (IVALO , FI) observed 0920 UTC 09 July 2020
Temperature: 15.0°C (59°F)
Dewpoint: 11.0°C (52°F) [RH = 77%]
Pressure (altimeter): 29.68 inches Hg (1005.0 mb)
Winds: from the NNE (20 degrees) at 7 MPH (6 knots; 3.1 m/s)
Visibility: 6 or more miles (10+ km)
Ceiling: 2800 feet AGL
Clouds: few clouds at 1700 feet AGL
broken clouds at 2800 feet AGL
Weather: no significant weather observed at this time

METAR text: EFIV 090850Z AUTO 35003KT 270V030 9999 OVC026 15/10 Q1005
Conditions at: EFIV (IVALO , FI) observed 0850 UTC 09 July 2020
Temperature: 15.0°C (59°F)
Dewpoint: 10.0°C (50°F) [RH = 72%]
Pressure (altimeter): 29.68 inches Hg (1005.0 mb)
Winds: from the N (350 degrees) at 3 MPH (3 knots; 1.5 m/s)
Visibility: 6 or more miles (10+ km)
Ceiling: 2600 feet AGL
Clouds: overcast cloud deck at 2600 feet AGL
Weather: no significant weather observed at this time

 AIRPORT MAP

 RUNWAY INFORMATION
Runway 04 Runway length 8199 ft Runway width 148 ft
Runway elevation 480 ft Runway displaced threshold 0 ft Runway heading 47
Runway 22 Runway length 8199 ft Runway width 148 ft
Runway elevation 463 ft Runway displaced threshold 0 ft Runway heading 227
Runway 08 Runway length 2625 ft Runway width 148 ft
Runway elevation 475 ft Runway displaced threshold 0 ft Runway heading 92
Runway 26 Runway length 2625 ft Runway width 148 ft
Runway elevation 468 ft Runway displaced threshold 0 ft Runway heading 272

 AIRPORT FREQUENCIES
Type ATIS Name ATIS Frequency 123.2 MHZ
Type TWR Name TWR Frequency 118 MHZ

 AIRPORT NEAR NAVIGATION AIDS
Type NDB Name Akujarvi Frequency 432 KHZ



Copyright © 2016 - 2020 - Smartbird VA, all rights reserved. Compagnie Aérienne Virtuelle

Powered by Virtual Airlines Manager [v2.6.2]